createdAt,value
2022-11-01T00:00:24.539Z,99.38
2022-11-01T00:02:26.373Z,99.38
2022-11-01T00:04:27.376Z,99.37
2022-11-01T00:06:29.183Z,99.33
2022-11-01T00:08:30.753Z,99.32
2022-11-01T00:10:31.949Z,99.33
2022-11-01T00:12:33.320Z,99.35
2022-11-01T00:14:34.624Z,99.36
2022-11-01T00:16:35.951Z,99.43
2022-11-01T00:18:37.454Z,99.42
2022-11-01T00:20:38.897Z,99.45
2022-11-01T00:22:40.623Z,99.43
2022-11-01T00:24:41.670Z,99.46
2022-11-01T00:26:42.761Z,99.45
2022-11-01T00:28:43.665Z,99.46
2022-11-01T00:30:45.336Z,99.47
2022-11-01T00:32:46.375Z,99.46
2022-11-01T00:34:47.219Z,99.44
2022-11-01T00:36:48.726Z,99.48
2022-11-01T00:38:49.804Z,99.47
2022-11-01T00:40:50.907Z,99.44
2022-11-01T00:42:52.246Z,99.44
2022-11-01T00:44:54.080Z,99.42
2022-11-01T00:46:55.114Z,99.43
2022-11-01T00:48:57.028Z,99.44
2022-11-01T00:50:57.984Z,99.43
2022-11-01T00:52:59.756Z,99.43
2022-11-01T00:57:02.944Z,99.43
2022-11-01T00:59:04.569Z,99.42
2022-11-01T01:01:06.399Z,99.43
2022-11-01T01:03:08.213Z,99.42
2022-11-01T01:05:09.522Z,99.42
2022-11-01T01:07:10.775Z,99.42
2022-11-01T01:09:11.837Z,99.4
2022-11-01T01:11:13.520Z,99.44
2022-11-01T01:13:15.172Z,99.42
2022-11-01T01:15:16.296Z,99.43
2022-11-01T01:17:18.078Z,99.43
2022-11-01T01:19:19.579Z,99.43
2022-11-01T01:21:20.865Z,99.45
2022-11-01T01:23:22.061Z,99.45
2022-11-01T01:25:23.623Z,99.45
2022-11-01T01:27:25.113Z,99.45
2022-11-01T01:29:26.422Z,99.46
2022-11-01T01:31:27.947Z,99.45
2022-11-01T01:33:28.870Z,99.48
2022-11-01T01:35:30.065Z,99.49
2022-11-01T01:37:31.287Z,99.51
2022-11-01T01:39:32.549Z,99.51
2022-11-01T01:41:33.673Z,99.51
2022-11-01T01:43:34.805Z,99.51
2022-11-01T01:45:36.569Z,99.53
2022-11-01T01:47:37.889Z,99.49
2022-11-01T01:49:41.573Z,99.51
2022-11-01T01:51:40.795Z,99.5
2022-11-01T01:53:41.987Z,99.51
2022-11-01T01:55:43.283Z,99.49
2022-11-01T01:57:45.015Z,99.51
2022-11-01T01:59:46.851Z,99.48
2022-11-01T02:01:48.307Z,99.51
2022-11-01T02:03:49.897Z,99.51
2022-11-01T02:05:51.414Z,99.49
2022-11-01T02:07:52.482Z,99.49
2022-11-01T02:09:54.389Z,99.5
2022-11-01T02:11:55.970Z,99.5
2022-11-01T02:14:06.694Z,99.47
2022-11-01T02:15:58.748Z,99.47
2022-11-01T02:18:00.736Z,99.45
2022-11-01T02:22:04.220Z,99.47
2022-11-01T02:24:06.097Z,99.48
2022-11-01T02:26:07.651Z,99.49
2022-11-01T02:28:09.301Z,99.51
2022-11-01T02:30:11.104Z,99.49
2022-11-01T02:32:12.050Z,99.5
2022-11-01T02:34:13.754Z,99.51
2022-11-01T02:36:15.556Z,99.51
2022-11-01T02:38:16.640Z,99.53
2022-11-01T02:40:17.671Z,99.53
2022-11-01T02:42:19.521Z,99.55
2022-11-01T02:44:21.043Z,99.55
2022-11-01T02:46:22.323Z,99.55
2022-11-01T02:48:23.565Z,99.55
2022-11-01T02:50:25.038Z,99.55
2022-11-01T02:52:26.955Z,99.55
2022-11-01T02:54:28.319Z,99.55
2022-11-01T02:56:30.334Z,99.54
2022-11-01T02:58:31.690Z,99.53
2022-11-01T03:00:33.607Z,99.52
2022-11-01T03:04:36.907Z,99.53
2022-11-01T03:06:37.964Z,99.57
2022-11-01T03:08:39.443Z,99.56
2022-11-01T03:10:40.709Z,99.58
2022-11-01T03:12:42.331Z,99.59
2022-11-01T03:14:44.211Z,99.56
2022-11-01T03:16:45.754Z,99.57
2022-11-01T03:18:47.296Z,99.54
2022-11-01T03:20:48.583Z,99.54
2022-11-01T03:21:32.380Z,99.52
2022-11-01T03:23:33.812Z,99.52
2022-11-01T03:25:35.261Z,99.51
2022-11-01T03:27:36.940Z,99.51
2022-11-01T03:29:38.183Z,99.52
2022-11-01T03:31:39.591Z,99.51
2022-11-01T03:33:41.287Z,99.55
2022-11-01T03:35:42.649Z,99.52
2022-11-01T03:37:43.651Z,99.53
2022-11-01T03:39:45.195Z,99.52
2022-11-01T03:41:46.275Z,99.52
2022-11-01T03:43:48.100Z,99.53
2022-11-01T03:45:49.164Z,99.54
2022-11-01T03:47:50.897Z,99.54
2022-11-01T03:49:52.814Z,99.55
2022-11-01T03:51:54.034Z,99.53
2022-11-01T03:53:55.188Z,99.56
2022-11-01T03:57:57.964Z,99.57
2022-11-01T03:59:59.214Z,99.57
2022-11-01T04:02:00.549Z,99.58
2022-11-01T04:04:01.487Z,99.57
2022-11-01T04:06:02.488Z,99.6
2022-11-01T04:08:04.396Z,99.58
2022-11-01T04:10:06.057Z,99.59
2022-11-01T04:12:07.005Z,99.58
2022-11-01T04:14:08.286Z,99.57
2022-11-01T04:16:09.253Z,99.57
2022-11-01T04:18:10.508Z,99.55
2022-11-01T04:20:12.158Z,99.53
2022-11-01T04:22:13.731Z,99.55
2022-11-01T04:24:15.177Z,99.55
2022-11-01T04:26:16.477Z,99.54
2022-11-01T04:28:18.001Z,99.56
2022-11-01T04:30:19.229Z,99.56
2022-11-01T04:32:20.431Z,99.58
2022-11-01T04:36:23.288Z,99.6
2022-11-01T04:40:25.810Z,99.59
2022-11-01T04:42:27.181Z,99.58
2022-11-01T04:44:28.492Z,99.56
2022-11-01T04:46:29.535Z,99.56
2022-11-01T04:48:30.916Z,99.55
2022-11-01T04:50:32.284Z,99.58
2022-11-01T04:52:33.775Z,99.57
2022-11-01T04:54:35.096Z,99.57
2022-11-01T04:56:36.058Z,99.57
2022-11-01T04:58:41.393Z,99.55
2022-11-01T05:00:39.230Z,99.58
2022-11-01T05:02:40.312Z,99.56
2022-11-01T05:04:41.711Z,99.56
2022-11-01T05:06:42.993Z,99.54
2022-11-01T05:08:44.192Z,99.56
2022-11-01T05:10:45.117Z,99.56
2022-11-01T05:12:46.615Z,99.56
2022-11-01T05:14:49.879Z,99.58
2022-11-01T05:16:49.538Z,99.58
2022-11-01T05:18:51.224Z,99.6
2022-11-01T05:20:52.398Z,99.6
2022-11-01T05:22:53.920Z,99.59
2022-11-01T05:24:55.488Z,99.58
2022-11-01T05:28:57.881Z,99.6
2022-11-01T05:30:59.246Z,99.64
2022-11-01T05:33:00.668Z,99.63
2022-11-01T05:35:01.999Z,99.6
2022-11-01T05:39:04.767Z,99.61
2022-11-01T05:41:06.270Z,99.62
2022-11-01T05:43:07.522Z,99.57
2022-11-01T05:45:08.843Z,99.57
2022-11-01T05:47:13.318Z,99.54
2022-11-01T05:49:11.926Z,99.53
2022-11-01T05:51:13.304Z,99.52
2022-11-01T05:53:15.090Z,99.54
2022-11-01T05:55:16.874Z,99.57
2022-11-01T05:57:18.457Z,99.57
2022-11-01T05:59:19.539Z,99.57
2022-11-01T06:01:20.655Z,99.59
2022-11-01T06:03:21.758Z,99.6
2022-11-01T06:05:23.634Z,99.62
2022-11-01T06:07:25.537Z,99.62
2022-11-01T06:11:28.319Z,99.6
2022-11-01T06:13:29.236Z,99.61
2022-11-01T06:15:32.143Z,99.6
2022-11-01T06:17:31.920Z,99.6
2022-11-01T06:21:35.586Z,99.59
2022-11-01T06:23:36.660Z,99.6
2022-11-01T06:25:38.507Z,99.57
2022-11-01T06:27:39.631Z,99.55
2022-11-01T06:29:40.572Z,99.56
2022-11-01T06:31:42.075Z,99.57
2022-11-01T06:33:42.927Z,99.56
2022-11-01T06:35:43.938Z,99.59
2022-11-01T06:37:45.409Z,99.58
2022-11-01T06:39:46.383Z,99.56
2022-11-01T06:41:47.907Z,99.57
2022-11-01T06:43:48.940Z,99.59
2022-11-01T06:45:49.931Z,99.57
2022-11-01T06:47:51.364Z,99.61
2022-11-01T06:55:57.437Z,99.6
2022-11-01T06:57:58.823Z,99.6
2022-11-01T07:00:00.155Z,99.57
2022-11-01T07:04:03.180Z,99.56
2022-11-01T07:06:04.852Z,99.53
2022-11-01T07:08:06.203Z,99.48
2022-11-01T07:10:07.368Z,99.48
2022-11-01T07:12:08.437Z,99.45
2022-11-01T07:14:10.009Z,99.3
2022-11-01T07:16:11.515Z,99.12
2022-11-01T07:18:13.380Z,98.79
2022-11-01T07:20:14.661Z,98.15
2022-11-01T07:22:15.578Z,97.46
2022-11-01T07:24:16.972Z,96.72
2022-11-01T07:26:18.882Z,96.32
2022-11-01T07:28:20.283Z,95.76
2022-11-01T07:30:21.448Z,94.99
2022-11-01T07:32:23.053Z,94.24
2022-11-01T07:34:24.020Z,92.86
2022-11-01T07:36:25.279Z,91.44
2022-11-01T07:38:26.417Z,91.33
2022-11-01T07:40:28.125Z,91.05
2022-11-01T07:42:29.607Z,90.34
2022-11-01T07:44:30.480Z,89.99
2022-11-01T07:46:31.629Z,90.1
2022-11-01T07:48:33.486Z,90.65
2022-11-01T07:52:36.250Z,89.38
2022-11-01T07:54:37.371Z,89.85
2022-11-01T07:56:38.519Z,89.59
2022-11-01T07:58:40.086Z,89.65
2022-11-01T08:02:42.718Z,89.32
2022-11-01T08:04:43.788Z,89.33
2022-11-01T08:06:46.985Z,89.19
2022-11-01T08:08:47.399Z,89.35
2022-11-01T08:10:49.064Z,89.47
2022-11-01T08:12:50.138Z,89.8
2022-11-01T08:14:51.521Z,89.75
2022-11-01T08:16:53.399Z,89.98
2022-11-01T08:18:55.020Z,89.42
2022-11-01T08:20:55.957Z,88.96
2022-11-01T08:22:56.996Z,89.28
2022-11-01T08:24:58.338Z,89.15
2022-11-01T08:26:59.908Z,88.99
2022-11-01T08:29:01.403Z,89.02
2022-11-01T08:31:03.221Z,88.75
2022-11-01T08:33:04.794Z,88.55
2022-11-01T08:35:05.237Z,88.11
2022-11-01T08:37:06.244Z,87.98
2022-11-01T08:41:09.500Z,87.92
2022-11-01T08:45:12.817Z,87.13
2022-11-01T08:47:14.623Z,87.36
2022-11-01T08:49:16.211Z,87.56
2022-11-01T08:51:17.182Z,87.98
2022-11-01T08:53:18.430Z,88.43
2022-11-01T08:55:20.102Z,87.84
2022-11-01T08:57:21.059Z,88.23
2022-11-01T09:01:23.722Z,87.38
2022-11-01T09:03:24.966Z,87.49
2022-11-01T09:05:26.114Z,87.18
2022-11-01T09:07:27.845Z,87.72
2022-11-01T09:09:29.275Z,87.65
2022-11-01T09:11:30.526Z,87.78
2022-11-01T09:13:32.145Z,87.42
2022-11-01T09:17:34.975Z,87.7
2022-11-01T09:19:36.970Z,86.52
2022-11-01T09:21:37.942Z,87.38
2022-11-01T09:23:39.451Z,87.18
2022-11-01T09:27:41.869Z,86.72
2022-11-01T09:29:44.197Z,86.65
2022-11-01T09:31:44.311Z,86.46
2022-11-01T09:33:45.773Z,86.11
2022-11-01T09:35:50.327Z,85.81
2022-11-01T09:37:48.997Z,85.49
2022-11-01T09:39:49.945Z,85.79
2022-11-01T09:41:51.681Z,85.84
2022-11-01T09:43:52.957Z,86
2022-11-01T09:45:54.254Z,86.47
2022-11-01T09:47:55.561Z,85.83
2022-11-01T09:49:57.258Z,85.7
2022-11-01T09:51:59.009Z,85.6
2022-11-01T09:53:59.816Z,85.5
2022-11-01T09:56:00.708Z,85.69
2022-11-01T09:58:02.214Z,85.61
2022-11-01T10:00:03.192Z,85.36
2022-11-01T10:02:09.647Z,85.15
2022-11-01T10:04:06.548Z,85.2
2022-11-01T10:06:07.483Z,85.02
2022-11-01T10:08:52.737Z,84.72
2022-11-01T10:10:53.582Z,84.84
2022-11-01T10:12:55.187Z,84.29
2022-11-01T10:14:56.155Z,83.78
2022-11-01T10:16:56.952Z,83.77
2022-11-01T10:21:00.131Z,82.87
2022-11-01T10:23:02.051Z,82.94
2022-11-01T10:25:03.301Z,82.81
2022-11-01T10:27:04.549Z,82.17
2022-11-01T10:29:05.604Z,82.22
2022-11-01T10:31:06.416Z,82.56
2022-11-01T10:33:08.078Z,81.86
2022-11-01T10:35:09.741Z,81.55
2022-11-01T10:37:11.455Z,81.6
2022-11-01T10:39:53.068Z,81.95
2022-11-01T10:41:13.725Z,81.05
2022-11-01T10:43:15.177Z,81.68
2022-11-01T10:45:16.127Z,81.02
2022-11-01T10:47:17.816Z,81.02
2022-11-01T10:49:19.080Z,81.17
2022-11-01T10:51:24.042Z,81.22
2022-11-01T10:53:21.204Z,81.5
2022-11-01T10:55:22.658Z,81.5
2022-11-01T10:57:24.378Z,81.55
2022-11-01T10:59:25.882Z,81.34
2022-11-01T11:03:27.983Z,81.61
2022-11-01T11:05:29.422Z,81.5
2022-11-01T11:07:30.309Z,81.5
2022-11-01T11:09:31.937Z,81.62
2022-11-01T11:11:33.215Z,82.27
2022-11-01T11:13:34.518Z,81.71
2022-11-01T11:15:35.814Z,81.19
2022-11-01T11:17:37.125Z,80.44
2022-11-01T11:19:37.941Z,80.14
2022-11-01T11:21:39.613Z,80.7
2022-11-01T11:23:41.152Z,79.9
2022-11-01T11:25:42.432Z,80.36
2022-11-01T11:27:43.673Z,80.42
2022-11-01T11:29:44.952Z,80
2022-11-01T11:31:46.746Z,79.41
2022-11-01T11:33:48.252Z,79.21
2022-11-01T11:35:49.109Z,79.53
2022-11-01T11:37:50.129Z,78.85
2022-11-01T11:39:51.037Z,78.4
2022-11-01T11:41:52.665Z,78.17
2022-11-01T11:43:53.970Z,78.15
2022-11-01T11:45:55.356Z,78.1
2022-11-01T11:47:56.335Z,77.97
2022-11-01T11:49:57.227Z,78.31
2022-11-01T11:51:58.824Z,77.72
2022-11-01T11:53:59.735Z,77.85
2022-11-01T11:56:00.906Z,77.46
2022-11-01T11:58:02.141Z,77.38
2022-11-01T12:02:04.788Z,77.2
2022-11-01T12:04:06.437Z,77.16
2022-11-01T12:06:07.807Z,76.87
2022-11-01T12:08:09.279Z,75.44
2022-11-01T12:10:10.746Z,76.05
2022-11-01T12:12:12.249Z,77.13
2022-11-01T12:14:13.717Z,76.74
2022-11-01T12:16:15.265Z,77.12
2022-11-01T12:18:16.595Z,75.45
2022-11-01T12:20:18.227Z,75.84
2022-11-01T12:22:19.834Z,76.15
2022-11-01T12:24:21.609Z,74.72
2022-11-01T12:26:22.596Z,75.63
2022-11-01T12:28:24.489Z,75.5
2022-11-01T12:30:25.287Z,74.56
2022-11-01T12:32:26.508Z,75.17
2022-11-01T12:34:27.403Z,74.53
2022-11-01T12:40:32.039Z,73.63
2022-11-01T12:44:34.641Z,74.04
2022-11-01T12:46:36.237Z,72.3
2022-11-01T12:48:37.112Z,72.62
2022-11-01T12:50:38.514Z,72.79
2022-11-01T12:52:39.502Z,72.54
2022-11-01T12:54:41.069Z,72.2
2022-11-01T12:56:42.127Z,71.34
2022-11-01T12:58:43.453Z,71.38
2022-11-01T13:00:44.657Z,70.84
2022-11-01T13:02:45.637Z,71.02
2022-11-01T13:04:46.841Z,71.02
2022-11-01T13:06:48.648Z,70.47
2022-11-01T13:08:50.288Z,70.54
2022-11-01T13:10:51.214Z,70.83
2022-11-01T13:12:52.098Z,70.09
2022-11-01T13:14:53.304Z,69.84
2022-11-01T13:16:54.193Z,70
2022-11-01T13:20:42.894Z,69.2
2022-11-01T13:22:57.584Z,69.65
2022-11-01T13:24:58.946Z,68.49
2022-11-01T13:26:59.769Z,67.59
2022-11-01T13:29:01.064Z,69.12
2022-11-01T13:31:01.858Z,69.24
2022-11-01T13:33:02.983Z,69.15
2022-11-01T13:35:04.316Z,70.4
2022-11-01T13:37:05.584Z,70.01
2022-11-01T13:39:06.779Z,70.54
2022-11-01T13:41:08.442Z,70.54
2022-11-01T13:43:09.986Z,71.08
2022-11-01T13:45:11.490Z,71.1
2022-11-01T13:49:14.320Z,71.22
2022-11-01T13:51:15.926Z,71.44
2022-11-01T13:53:16.981Z,71.52
2022-11-01T13:55:18.173Z,71.61
2022-11-01T13:57:19.645Z,71.17
2022-11-01T13:59:20.790Z,71.32
2022-11-01T14:01:21.693Z,71.41
2022-11-01T14:03:23.164Z,70.02
2022-11-01T14:05:24.159Z,70.28
2022-11-01T14:07:25.618Z,69.75
2022-11-01T14:09:27.047Z,70.3
2022-11-01T14:11:28.443Z,71.22
2022-11-01T14:13:29.609Z,70.08
2022-11-01T14:15:31.185Z,70.61
2022-11-01T14:17:32.537Z,70.87
2022-11-01T14:19:33.608Z,70.65
2022-11-01T14:21:34.883Z,70.34
2022-11-01T14:25:37.866Z,71.62
2022-11-01T14:27:38.834Z,70.85
2022-11-01T14:29:40.397Z,71.7
2022-11-01T14:31:41.525Z,71.56
2022-11-01T14:35:44.518Z,71.29
2022-11-01T14:37:46.346Z,71.01
2022-11-01T14:39:48.085Z,71.04
2022-11-01T14:41:53.785Z,71.68
2022-11-01T14:43:50.732Z,71.98
2022-11-01T14:45:52.120Z,71.33
2022-11-01T14:47:53.880Z,70.21
2022-11-01T14:49:54.857Z,70.16
2022-11-01T14:51:56.534Z,70.29
2022-11-01T14:53:58.279Z,70.67
2022-11-01T14:58:00.639Z,70.47
2022-11-01T15:00:01.657Z,69.79
2022-11-01T15:02:03.606Z,70.32
2022-11-01T15:04:04.215Z,71.42
2022-11-01T15:06:05.156Z,71.82
2022-11-01T15:08:06.797Z,72.43
2022-11-01T15:10:08.167Z,73.2
2022-11-01T15:12:09.881Z,73.67
2022-11-01T15:14:10.949Z,74.26
2022-11-01T15:16:12.602Z,74.39
2022-11-01T15:18:14.256Z,74.6
2022-11-01T15:20:15.348Z,74.69
2022-11-01T15:22:16.872Z,75.31
2022-11-01T15:24:18.143Z,75.33
2022-11-01T15:26:19.204Z,75.46
2022-11-01T15:30:21.625Z,75.66
2022-11-01T15:32:23.255Z,75.88
2022-11-01T15:34:24.313Z,76
2022-11-01T15:36:25.986Z,76.27
2022-11-01T15:40:29.405Z,75.71
2022-11-01T15:42:30.603Z,75.93
2022-11-01T15:44:31.909Z,76.03
2022-11-01T15:46:32.954Z,76.27
2022-11-01T15:48:34.118Z,76.64
2022-11-01T15:50:35.459Z,76.93
2022-11-01T15:52:36.363Z,76.88
2022-11-01T15:54:37.286Z,77.24
2022-11-01T15:56:38.235Z,77.79
2022-11-01T15:58:39.717Z,77.83
2022-11-01T16:00:41.566Z,78.5
2022-11-01T16:02:43.217Z,78.93
2022-11-01T16:04:44.907Z,79.48
2022-11-01T16:06:46.473Z,80.01
2022-11-01T16:08:48.257Z,80.09
2022-11-01T16:10:49.190Z,80.26
2022-11-01T16:12:50.636Z,80.27
2022-11-01T16:14:51.617Z,80.44
2022-11-01T16:16:53.132Z,81.11
2022-11-01T16:18:54.316Z,81.4
2022-11-01T16:20:56.111Z,81.85
2022-11-01T16:22:57.498Z,81.89
2022-11-01T16:24:59.004Z,81.67
2022-11-01T16:27:00.146Z,81.53
2022-11-01T16:29:01.276Z,81.29
2022-11-01T16:31:02.669Z,81.33
2022-11-01T16:33:03.951Z,80.85
2022-11-01T16:35:05.816Z,81.06
2022-11-01T16:39:09.191Z,81.15
2022-11-01T16:41:10.728Z,81.04
2022-11-01T16:43:12.505Z,81.26
2022-11-01T16:45:13.366Z,81.53
2022-11-01T16:47:15.146Z,82.01
2022-11-01T16:49:16.334Z,81.88
2022-11-01T16:51:17.900Z,82.32
2022-11-01T16:54:03.293Z,82.51
2022-11-01T16:56:16.718Z,82.94
2022-11-01T16:58:05.923Z,84.15
2022-11-01T17:00:06.962Z,85.43
2022-11-01T17:02:08.534Z,86.18
2022-11-01T17:04:09.769Z,86.2
2022-11-01T17:06:10.789Z,86.32
2022-11-01T17:08:12.318Z,86.15
2022-11-01T17:10:13.657Z,86.32
2022-11-01T17:12:14.859Z,86.72
2022-11-01T17:16:18.478Z,86.87
2022-11-01T17:18:22.051Z,86.91
2022-11-01T17:20:20.999Z,87.36
2022-11-01T17:22:22.853Z,87.38
2022-11-01T17:24:24.292Z,86.7
2022-11-01T17:26:25.352Z,86.96
2022-11-01T17:28:26.591Z,86.87
2022-11-01T17:30:27.909Z,86.84
2022-11-01T17:32:29.545Z,86.94
2022-11-01T17:34:30.811Z,87.22
2022-11-01T17:36:31.697Z,87.65
2022-11-01T17:38:32.989Z,88
2022-11-01T17:40:34.195Z,88.4
2022-11-01T17:42:35.139Z,88.83
2022-11-01T17:44:36.774Z,89.13
2022-11-01T17:46:38.555Z,89.54
2022-11-01T17:48:39.703Z,89.73
2022-11-01T17:50:41.446Z,89.57
2022-11-01T17:52:43.148Z,89.56
2022-11-01T17:54:44.963Z,89.51
2022-11-01T17:58:49.467Z,90.19
2022-11-01T18:00:48.702Z,90.4
2022-11-01T18:04:51.609Z,89.76
2022-11-01T18:06:53.448Z,90.13
2022-11-01T18:08:55.286Z,90.05
2022-11-01T18:10:57.128Z,90.01
2022-11-01T18:12:58.600Z,89.99
2022-11-01T18:15:00.009Z,90.68
2022-11-01T18:17:01.162Z,90.36
2022-11-01T18:19:02.630Z,91.17
2022-11-01T18:21:04.282Z,91.44
2022-11-01T18:23:05.356Z,91.29
2022-11-01T18:25:06.456Z,91.77
2022-11-01T18:27:08.021Z,91.27
2022-11-01T18:29:09.582Z,91.41
2022-11-01T18:31:11.310Z,91.55
2022-11-01T18:33:12.912Z,92.22
2022-11-01T18:37:16.462Z,92.92
2022-11-01T18:39:17.851Z,92.97
2022-11-01T18:41:18.930Z,93.05
2022-11-01T18:43:19.866Z,92.99
2022-11-01T18:47:22.950Z,92.7
2022-11-01T18:49:24.702Z,93.17
2022-11-01T18:51:26.632Z,93.06
2022-11-01T18:53:28.564Z,93.25
2022-11-01T18:57:30.584Z,93.57
2022-11-01T18:59:31.807Z,92.81
2022-11-01T19:01:33.759Z,93.21
2022-11-01T19:03:34.659Z,92.77
2022-11-01T19:05:36.407Z,92.94
2022-11-01T19:07:57.354Z,93.03
2022-11-01T19:09:39.029Z,93.26
2022-11-01T19:11:40.457Z,93.16
2022-11-01T19:13:41.568Z,94.04
2022-11-01T19:15:42.784Z,94.05
2022-11-01T19:17:44.067Z,93.89
2022-11-01T19:19:45.145Z,94.06
2022-11-01T19:21:46.190Z,94.41
2022-11-01T19:23:47.338Z,94.67
2022-11-01T19:25:48.604Z,94.75
2022-11-01T19:27:49.867Z,94.25
2022-11-01T19:29:54.025Z,94.84
2022-11-01T19:31:52.206Z,95.13
2022-11-01T19:33:53.910Z,95.08
2022-11-01T19:35:55.162Z,94.68
2022-11-01T19:39:58.321Z,95.06
2022-11-01T19:42:00.049Z,95.05
2022-11-01T19:44:01.310Z,95.19
2022-11-01T19:46:02.852Z,95.2
2022-11-01T19:48:04.524Z,95.33
2022-11-01T19:50:05.235Z,95.77
2022-11-01T19:52:06.586Z,95.63
2022-11-01T19:54:07.679Z,95.6
2022-11-01T19:56:09.062Z,95.74
2022-11-01T19:58:10.292Z,95.87
2022-11-01T20:00:11.952Z,95.76
2022-11-01T20:02:13.199Z,96.12
2022-11-01T20:04:14.289Z,96.24
2022-11-01T20:06:15.621Z,96.18
2022-11-01T20:08:16.969Z,96.06
2022-11-01T20:10:18.818Z,95.99
2022-11-01T20:12:22.101Z,95.97
2022-11-01T20:14:21.724Z,95.92
2022-11-01T20:16:23.154Z,95.86
2022-11-01T20:18:24.704Z,95.9
2022-11-01T20:22:27.376Z,96.44
2022-11-01T20:24:29.208Z,96.58
2022-11-01T20:28:31.527Z,96.32
2022-11-01T20:30:32.867Z,96.49
2022-11-01T20:32:34.636Z,96.4
2022-11-01T20:34:36.434Z,96.88
2022-11-01T20:38:39.718Z,97.26
2022-11-01T20:40:41.199Z,97.3
2022-11-01T20:42:42.999Z,97.35
2022-11-01T20:44:44.564Z,97.23
2022-11-01T20:46:45.696Z,97.28
2022-11-01T20:48:47.508Z,97.25
2022-11-01T20:50:48.950Z,97.24
2022-11-01T20:52:50.563Z,97.2
2022-11-01T20:54:51.594Z,97.23
2022-11-01T20:56:52.574Z,97.22
2022-11-01T20:58:53.976Z,97.14
2022-11-01T21:00:55.508Z,97.49
2022-11-01T21:02:56.650Z,97.4
2022-11-01T21:04:58.291Z,97.38
2022-11-01T21:06:59.795Z,97.4
2022-11-01T21:09:01.470Z,97.33
2022-11-01T21:11:02.742Z,97.25
2022-11-01T21:13:04.790Z,97.34
2022-11-01T21:17:07.208Z,97.48
2022-11-01T21:21:10.464Z,97.68
2022-11-01T21:23:11.571Z,97.63
2022-11-01T21:25:12.668Z,97.63
2022-11-01T21:27:13.861Z,97.67
2022-11-01T21:29:15.503Z,97.79
2022-11-01T21:33:18.527Z,97.89
2022-11-01T21:35:20.148Z,97.94
2022-11-01T21:37:21.503Z,97.94
2022-11-01T21:39:22.626Z,97.91
2022-11-01T21:41:24.592Z,97.94
2022-11-01T21:43:26.346Z,97.96
2022-11-01T21:45:28.034Z,97.99
2022-11-01T21:47:29.838Z,98.06
2022-11-01T21:49:30.978Z,97.98
2022-11-01T21:51:32.199Z,97.84
2022-11-01T21:53:33.894Z,97.9
2022-11-01T21:55:35.345Z,97.96
2022-11-01T21:57:36.845Z,97.98
2022-11-01T21:59:38.088Z,98.04
2022-11-01T22:03:41.614Z,98.17
2022-11-01T22:05:42.697Z,98.19
2022-11-01T22:07:44.046Z,98.2
2022-11-01T22:09:45.388Z,98.16
2022-11-01T22:13:48.651Z,98.12
2022-11-01T22:15:50.144Z,98.07
2022-11-01T22:17:51.956Z,97.9
2022-11-01T22:19:53.731Z,98.15
2022-11-01T22:21:55.050Z,98.19
2022-11-01T22:23:56.247Z,98.21
2022-11-01T22:25:57.765Z,98.22
2022-11-01T22:27:59.070Z,98.21
2022-11-01T22:30:00.806Z,98.19
2022-11-01T22:32:02.690Z,98.14
2022-11-01T22:34:04.213Z,98.11
2022-11-01T22:36:05.231Z,98.19
2022-11-01T22:38:07.201Z,98.16
2022-11-01T22:40:08.354Z,98.12
2022-11-01T22:42:09.450Z,98.1
2022-11-01T22:46:12.596Z,98.14
2022-11-01T22:48:14.353Z,98.16
2022-11-01T22:50:16.173Z,98.09
2022-11-01T22:52:17.525Z,98.09
2022-11-01T22:54:18.507Z,98.1
2022-11-01T22:56:20.092Z,98.14
2022-11-01T22:58:21.545Z,98.35
2022-11-01T23:00:23.430Z,98.4
2022-11-01T23:02:24.778Z,98.47
2022-11-01T23:04:26.039Z,98.44
2022-11-01T23:06:27.590Z,98.47
2022-11-01T23:08:29.105Z,98.55
2022-11-01T23:10:30.731Z,98.59
2022-11-01T23:12:31.779Z,98.65
2022-11-01T23:14:32.750Z,98.65
2022-11-01T23:16:34.258Z,98.62
2022-11-01T23:18:35.500Z,98.49
2022-11-01T23:20:36.851Z,98.52
2022-11-01T23:22:38.496Z,98.59
2022-11-01T23:24:39.714Z,98.6
2022-11-01T23:26:41.032Z,98.72
2022-11-01T23:28:42.105Z,98.73
2022-11-01T23:30:44.007Z,98.72
2022-11-01T23:34:46.477Z,98.65
2022-11-01T23:36:47.639Z,98.61
2022-11-01T23:39:32.551Z,98.67
2022-11-01T23:41:34.472Z,98.71
2022-11-01T23:43:35.951Z,98.69
2022-11-01T23:45:37.603Z,98.68
2022-11-01T23:47:38.698Z,98.64
2022-11-01T23:49:40.400Z,98.64
2022-11-01T23:51:41.525Z,98.65
2022-11-01T23:53:42.948Z,98.65
2022-11-01T23:55:44.690Z,98.62
2022-11-01T23:57:45.842Z,98.63
2022-11-01T23:59:47.056Z,98.71
